sensor_id;sensor_type;location;lat;lon;timestamp;P1;durP1;ratioP1;P2;durP2;ratioP2
18576;SDS011;9418;52.694;13.294;2023-07-31T00:02:11;3.57;;;1.50;;
18576;SDS011;9418;52.694;13.294;2023-07-31T00:04:38;3.43;;;1.50;;
18576;SDS011;9418;52.694;13.294;2023-07-31T00:07:05;2.40;;;1.30;;
18576;SDS011;9418;52.694;13.294;2023-07-31T00:09:31;6.43;;;1.90;;
18576;SDS011;9418;52.694;13.294;2023-07-31T00:11:59;5.40;;;1.70;;
18576;SDS011;9418;52.694;13.294;2023-07-31T00:14:26;6.60;;;1.90;;
18576;SDS011;9418;52.694;13.294;2023-07-31T00:16:52;4.73;;;1.20;;
18576;SDS011;9418;52.694;13.294;2023-07-31T00:19:19;6.20;;;1.60;;
18576;SDS011;9418;52.694;13.294;2023-07-31T00:21:45;5.30;;;1.60;;
18576;SDS011;9418;52.694;13.294;2023-07-31T00:24:12;3.70;;;1.40;;
18576;SDS011;9418;52.694;13.294;2023-07-31T00:26:38;3.23;;;1.50;;
18576;SDS011;9418;52.694;13.294;2023-07-31T00:29:06;5.17;;;1.50;;
18576;SDS011;9418;52.694;13.294;2023-07-31T00:31:33;5.10;;;2.30;;
18576;SDS011;9418;52.694;13.294;2023-07-31T00:33:59;1.57;;;1.30;;
18576;SDS011;9418;52.694;13.294;2023-07-31T00:36:26;2.23;;;1.30;;
18576;SDS011;9418;52.694;13.294;2023-07-31T00:38:52;4.70;;;1.67;;
18576;SDS011;9418;52.694;13.294;2023-07-31T00:41:19;6.07;;;1.60;;
18576;SDS011;9418;52.694;13.294;2023-07-31T00:43:45;4.23;;;1.47;;
18576;SDS011;9418;52.694;13.294;2023-07-31T00:46:13;2.70;;;1.53;;
18576;SDS011;9418;52.694;13.294;2023-07-31T00:48:40;3.67;;;1.83;;
18576;SDS011;9418;52.694;13.294;2023-07-31T00:51:07;3.27;;;1.23;;
18576;SDS011;9418;52.694;13.294;2023-07-31T00:53:34;2.90;;;1.67;;
18576;SDS011;9418;52.694;13.294;2023-07-31T00:56:01;4.40;;;1.80;;
18576;SDS011;9418;52.694;13.294;2023-07-31T00:58:28;8.40;;;1.77;;
18576;SDS011;9418;52.694;13.294;2023-07-31T01:00:54;5.03;;;1.83;;
18576;SDS011;9418;52.694;13.294;2023-07-31T01:03:22;3.80;;;1.60;;
18576;SDS011;9418;52.694;13.294;2023-07-31T01:05:51;5.43;;;1.50;;
18576;SDS011;9418;52.694;13.294;2023-07-31T01:08:29;4.30;;;1.90;;
18576;SDS011;9418;52.694;13.294;2023-07-31T01:11:02;3.20;;;1.63;;
18576;SDS011;9418;52.694;13.294;2023-07-31T01:13:36;4.10;;;1.60;;
18576;SDS011;9418;52.694;13.294;2023-07-31T01:16:03;5.10;;;1.27;;
18576;SDS011;9418;52.694;13.294;2023-07-31T01:18:31;7.37;;;1.50;;
18576;SDS011;9418;52.694;13.294;2023-07-31T01:21:01;8.23;;;1.97;;
18576;SDS011;9418;52.694;13.294;2023-07-31T01:26:32;2.37;;;1.20;;
18576;SDS011;9418;52.694;13.294;2023-07-31T01:29:01;5.40;;;1.87;;
18576;SDS011;9418;52.694;13.294;2023-07-31T01:31:33;7.40;;;1.60;;
18576;SDS011;9418;52.694;13.294;2023-07-31T01:34:01;5.80;;;1.30;;
18576;SDS011;9418;52.694;13.294;2023-07-31T01:36:28;2.10;;;1.20;;
18576;SDS011;9418;52.694;13.294;2023-07-31T01:38:57;4.93;;;1.67;;
18576;SDS011;9418;52.694;13.294;2023-07-31T01:41:25;5.03;;;1.50;;
18576;SDS011;9418;52.694;13.294;2023-07-31T01:43:53;1.63;;;1.37;;
18576;SDS011;9418;52.694;13.294;2023-07-31T01:46:19;2.23;;;1.33;;
18576;SDS011;9418;52.694;13.294;2023-07-31T01:48:46;3.20;;;1.50;;
18576;SDS011;9418;52.694;13.294;2023-07-31T01:51:12;3.17;;;1.50;;
18576;SDS011;9418;52.694;13.294;2023-07-31T01:53:39;3.87;;;1.93;;
18576;SDS011;9418;52.694;13.294;2023-07-31T01:56:05;2.40;;;1.07;;
18576;SDS011;9418;52.694;13.294;2023-07-31T01:58:32;5.80;;;1.60;;
18576;SDS011;9418;52.694;13.294;2023-07-31T02:01:00;5.60;;;1.70;;
18576;SDS011;9418;52.694;13.294;2023-07-31T02:03:26;4.50;;;1.70;;
18576;SDS011;9418;52.694;13.294;2023-07-31T02:05:53;4.43;;;1.63;;
18576;SDS011;9418;52.694;13.294;2023-07-31T02:08:21;4.20;;;1.77;;
18576;SDS011;9418;52.694;13.294;2023-07-31T02:10:48;3.37;;;1.50;;
18576;SDS011;9418;52.694;13.294;2023-07-31T02:13:14;3.87;;;1.93;;
18576;SDS011;9418;52.694;13.294;2023-07-31T02:15:41;5.10;;;2.23;;
18576;SDS011;9418;52.694;13.294;2023-07-31T02:18:09;6.23;;;2.13;;
18576;SDS011;9418;52.694;13.294;2023-07-31T02:20:35;6.53;;;2.70;;
18576;SDS011;9418;52.694;13.294;2023-07-31T02:23:02;3.70;;;1.80;;
18576;SDS011;9418;52.694;13.294;2023-07-31T02:25:28;6.70;;;2.17;;
18576;SDS011;9418;52.694;13.294;2023-07-31T02:27:55;8.80;;;2.30;;
18576;SDS011;9418;52.694;13.294;2023-07-31T02:30:21;5.70;;;1.77;;
18576;SDS011;9418;52.694;13.294;2023-07-31T02:32:48;3.60;;;2.30;;
18576;SDS011;9418;52.694;13.294;2023-07-31T02:35:16;6.50;;;2.40;;
18576;SDS011;9418;52.694;13.294;2023-07-31T02:37:43;6.17;;;2.27;;
18576;SDS011;9418;52.694;13.294;2023-07-31T02:40:10;4.80;;;2.23;;
18576;SDS011;9418;52.694;13.294;2023-07-31T02:42:37;5.70;;;2.77;;
18576;SDS011;9418;52.694;13.294;2023-07-31T02:45:04;6.17;;;2.37;;
18576;SDS011;9418;52.694;13.294;2023-07-31T02:47:31;5.13;;;2.10;;
18576;SDS011;9418;52.694;13.294;2023-07-31T02:49:58;4.67;;;2.43;;
18576;SDS011;9418;52.694;13.294;2023-07-31T02:52:26;4.30;;;2.00;;
18576;SDS011;9418;52.694;13.294;2023-07-31T02:54:52;6.47;;;2.57;;
18576;SDS011;9418;52.694;13.294;2023-07-31T02:57:19;3.73;;;2.23;;
18576;SDS011;9418;52.694;13.294;2023-07-31T02:59:46;4.43;;;1.80;;
18576;SDS011;9418;52.694;13.294;2023-07-31T03:02:13;6.80;;;2.33;;
18576;SDS011;9418;52.694;13.294;2023-07-31T03:04:39;5.80;;;2.73;;
18576;SDS011;9418;52.694;13.294;2023-07-31T03:07:06;6.80;;;2.63;;
18576;SDS011;9418;52.694;13.294;2023-07-31T03:09:34;3.83;;;2.37;;
18576;SDS011;9418;52.694;13.294;2023-07-31T03:12:00;2.43;;;2.00;;
18576;SDS011;9418;52.694;13.294;2023-07-31T03:14:28;4.90;;;2.53;;
18576;SDS011;9418;52.694;13.294;2023-07-31T03:16:54;6.33;;;2.50;;
18576;SDS011;9418;52.694;13.294;2023-07-31T03:19:21;4.80;;;2.40;;
18576;SDS011;9418;52.694;13.294;2023-07-31T03:21:48;5.00;;;2.90;;
18576;SDS011;9418;52.694;13.294;2023-07-31T03:24:14;5.77;;;2.43;;
18576;SDS011;9418;52.694;13.294;2023-07-31T03:26:42;5.50;;;2.43;;
18576;SDS011;9418;52.694;13.294;2023-07-31T03:29:09;4.20;;;2.33;;
18576;SDS011;9418;52.694;13.294;2023-07-31T03:31:35;7.93;;;3.20;;
18576;SDS011;9418;52.694;13.294;2023-07-31T03:34:02;3.80;;;2.03;;
18576;SDS011;9418;52.694;13.294;2023-07-31T03:36:28;3.60;;;2.20;;
18576;SDS011;9418;52.694;13.294;2023-07-31T03:38:55;5.00;;;2.30;;
18576;SDS011;9418;52.694;13.294;2023-07-31T03:41:21;3.83;;;2.03;;
18576;SDS011;9418;52.694;13.294;2023-07-31T03:43:50;4.00;;;1.77;;
18576;SDS011;9418;52.694;13.294;2023-07-31T03:46:17;5.57;;;1.70;;
18576;SDS011;9418;52.694;13.294;2023-07-31T03:48:44;7.90;;;1.90;;
18576;SDS011;9418;52.694;13.294;2023-07-31T03:51:10;4.60;;;1.97;;
18576;SDS011;9418;52.694;13.294;2023-07-31T03:53:37;3.33;;;2.17;;
18576;SDS011;9418;52.694;13.294;2023-07-31T03:56:04;7.43;;;2.17;;
18576;SDS011;9418;52.694;13.294;2023-07-31T03:58:31;5.33;;;2.03;;
18576;SDS011;9418;52.694;13.294;2023-07-31T04:00:59;5.27;;;2.57;;
18576;SDS011;9418;52.694;13.294;2023-07-31T04:03:25;3.33;;;1.70;;
18576;SDS011;9418;52.694;13.294;2023-07-31T04:05:53;5.27;;;2.30;;
18576;SDS011;9418;52.694;13.294;2023-07-31T04:08:20;13.37;;;2.77;;
18576;SDS011;9418;52.694;13.294;2023-07-31T04:10:47;4.67;;;2.83;;
18576;SDS011;9418;52.694;13.294;2023-07-31T04:13:14;9.23;;;4.00;;
18576;SDS011;9418;52.694;13.294;2023-07-31T04:15:41;4.87;;;2.40;;
18576;SDS011;9418;52.694;13.294;2023-07-31T04:18:09;5.93;;;2.67;;
18576;SDS011;9418;52.694;13.294;2023-07-31T04:20:35;4.17;;;2.20;;
18576;SDS011;9418;52.694;13.294;2023-07-31T04:23:02;3.53;;;2.60;;
18576;SDS011;9418;52.694;13.294;2023-07-31T04:25:29;14.40;;;2.93;;
18576;SDS011;9418;52.694;13.294;2023-07-31T04:27:56;6.57;;;2.40;;
18576;SDS011;9418;52.694;13.294;2023-07-31T04:30:23;5.73;;;2.40;;
18576;SDS011;9418;52.694;13.294;2023-07-31T04:32:50;4.30;;;2.20;;
18576;SDS011;9418;52.694;13.294;2023-07-31T04:35:18;4.93;;;2.53;;
18576;SDS011;9418;52.694;13.294;2023-07-31T04:37:44;4.33;;;3.27;;
18576;SDS011;9418;52.694;13.294;2023-07-31T04:40:13;3.10;;;2.17;;
18576;SDS011;9418;52.694;13.294;2023-07-31T04:42:40;4.63;;;3.03;;
18576;SDS011;9418;52.694;13.294;2023-07-31T04:45:08;5.13;;;2.83;;
18576;SDS011;9418;52.694;13.294;2023-07-31T04:47:35;7.83;;;3.07;;
18576;SDS011;9418;52.694;13.294;2023-07-31T04:50:02;8.83;;;2.53;;
18576;SDS011;9418;52.694;13.294;2023-07-31T04:52:29;3.80;;;2.13;;
18576;SDS011;9418;52.694;13.294;2023-07-31T04:54:56;7.07;;;3.10;;
18576;SDS011;9418;52.694;13.294;2023-07-31T04:57:22;7.67;;;2.90;;
18576;SDS011;9418;52.694;13.294;2023-07-31T04:59:49;3.80;;;2.80;;
18576;SDS011;9418;52.694;13.294;2023-07-31T05:02:16;7.10;;;2.87;;
18576;SDS011;9418;52.694;13.294;2023-07-31T05:04:42;5.03;;;2.90;;
18576;SDS011;9418;52.694;13.294;2023-07-31T05:07:09;12.30;;;3.13;;
18576;SDS011;9418;52.694;13.294;2023-07-31T05:09:36;7.93;;;3.33;;
18576;SDS011;9418;52.694;13.294;2023-07-31T05:12:04;6.93;;;2.77;;
18576;SDS011;9418;52.694;13.294;2023-07-31T05:14:31;10.43;;;3.03;;
18576;SDS011;9418;52.694;13.294;2023-07-31T05:16:58;6.77;;;3.00;;
18576;SDS011;9418;52.694;13.294;2023-07-31T05:19:24;3.80;;;2.43;;
18576;SDS011;9418;52.694;13.294;2023-07-31T05:21:51;10.00;;;3.50;;
18576;SDS011;9418;52.694;13.294;2023-07-31T05:24:17;5.37;;;3.10;;
18576;SDS011;9418;52.694;13.294;2023-07-31T05:26:45;15.63;;;3.47;;
18576;SDS011;9418;52.694;13.294;2023-07-31T05:29:12;4.30;;;2.97;;
18576;SDS011;9418;52.694;13.294;2023-07-31T05:31:38;10.67;;;2.90;;
18576;SDS011;9418;52.694;13.294;2023-07-31T05:34:05;5.13;;;3.00;;
18576;SDS011;9418;52.694;13.294;2023-07-31T05:36:31;6.97;;;2.97;;
18576;SDS011;9418;52.694;13.294;2023-07-31T05:38:58;8.80;;;3.20;;
18576;SDS011;9418;52.694;13.294;2023-07-31T05:41:24;8.67;;;3.30;;
18576;SDS011;9418;52.694;13.294;2023-07-31T05:43:52;11.93;;;3.00;;
18576;SDS011;9418;52.694;13.294;2023-07-31T05:46:19;3.73;;;2.43;;
18576;SDS011;9418;52.694;13.294;2023-07-31T05:48:45;3.33;;;2.60;;
18576;SDS011;9418;52.694;13.294;2023-07-31T05:51:12;3.20;;;2.60;;
18576;SDS011;9418;52.694;13.294;2023-07-31T05:53:38;5.20;;;2.70;;
18576;SDS011;9418;52.694;13.294;2023-07-31T05:56:05;6.77;;;3.20;;
18576;SDS011;9418;52.694;13.294;2023-07-31T05:58:32;5.20;;;3.47;;
18576;SDS011;9418;52.694;13.294;2023-07-31T06:01:00;3.13;;;2.47;;
18576;SDS011;9418;52.694;13.294;2023-07-31T06:03:27;5.53;;;3.17;;
18576;SDS011;9418;52.694;13.294;2023-07-31T06:05:53;8.53;;;2.93;;
18576;SDS011;9418;52.694;13.294;2023-07-31T06:08:20;3.80;;;2.83;;
18576;SDS011;9418;52.694;13.294;2023-07-31T06:10:46;8.33;;;3.07;;
18576;SDS011;9418;52.694;13.294;2023-07-31T06:13:13;9.03;;;2.97;;
18576;SDS011;9418;52.694;13.294;2023-07-31T06:15:39;3.60;;;2.17;;
18576;SDS011;9418;52.694;13.294;2023-07-31T06:18:07;13.27;;;2.93;;
18576;SDS011;9418;52.694;13.294;2023-07-31T06:20:34;10.33;;;3.10;;
18576;SDS011;9418;52.694;13.294;2023-07-31T06:23:00;10.43;;;3.07;;
18576;SDS011;9418;52.694;13.294;2023-07-31T06:25:27;5.83;;;2.77;;
18576;SDS011;9418;52.694;13.294;2023-07-31T06:27:54;9.63;;;3.30;;
18576;SDS011;9418;52.694;13.294;2023-07-31T06:30:20;6.63;;;3.50;;
18576;SDS011;9418;52.694;13.294;2023-07-31T06:32:47;11.73;;;2.90;;
18576;SDS011;9418;52.694;13.294;2023-07-31T06:35:14;9.00;;;3.23;;
18576;SDS011;9418;52.694;13.294;2023-07-31T06:37:41;5.60;;;2.60;;
18576;SDS011;9418;52.694;13.294;2023-07-31T06:40:09;3.57;;;2.47;;
18576;SDS011;9418;52.694;13.294;2023-07-31T06:42:36;8.20;;;3.83;;
18576;SDS011;9418;52.694;13.294;2023-07-31T06:45:03;7.63;;;3.37;;
18576;SDS011;9418;52.694;13.294;2023-07-31T06:47:30;5.30;;;2.67;;
18576;SDS011;9418;52.694;13.294;2023-07-31T06:49:57;9.40;;;3.07;;
18576;SDS011;9418;52.694;13.294;2023-07-31T06:52:24;5.63;;;2.70;;
18576;SDS011;9418;52.694;13.294;2023-07-31T06:55:00;5.07;;;2.47;;
18576;SDS011;9418;52.694;13.294;2023-07-31T06:57:28;7.23;;;3.30;;
18576;SDS011;9418;52.694;13.294;2023-07-31T06:59:54;4.83;;;2.93;;
18576;SDS011;9418;52.694;13.294;2023-07-31T07:02:21;5.30;;;2.80;;
18576;SDS011;9418;52.694;13.294;2023-07-31T07:04:48;6.90;;;3.00;;
18576;SDS011;9418;52.694;13.294;2023-07-31T07:07:15;7.93;;;2.83;;
18576;SDS011;9418;52.694;13.294;2023-07-31T07:09:43;12.17;;;2.67;;
18576;SDS011;9418;52.694;13.294;2023-07-31T07:12:09;4.33;;;2.73;;
18576;SDS011;9418;52.694;13.294;2023-07-31T07:14:36;22.57;;;2.80;;
18576;SDS011;9418;52.694;13.294;2023-07-31T07:17:03;7.13;;;2.23;;
18576;SDS011;9418;52.694;13.294;2023-07-31T07:19:30;4.33;;;2.37;;
18576;SDS011;9418;52.694;13.294;2023-07-31T07:21:56;7.43;;;2.73;;
18576;SDS011;9418;52.694;13.294;2023-07-31T07:24:24;4.33;;;2.70;;
18576;SDS011;9418;52.694;13.294;2023-07-31T07:26:52;9.00;;;2.77;;
18576;SDS011;9418;52.694;13.294;2023-07-31T07:29:19;7.80;;;2.80;;
18576;SDS011;9418;52.694;13.294;2023-07-31T07:31:45;8.80;;;2.70;;
18576;SDS011;9418;52.694;13.294;2023-07-31T07:34:12;10.13;;;2.63;;
18576;SDS011;9418;52.694;13.294;2023-07-31T07:36:38;8.13;;;3.70;;
18576;SDS011;9418;52.694;13.294;2023-07-31T07:39:05;6.90;;;2.20;;
18576;SDS011;9418;52.694;13.294;2023-07-31T07:41:31;3.70;;;2.17;;
18576;SDS011;9418;52.694;13.294;2023-07-31T07:43:59;5.60;;;2.70;;
18576;SDS011;9418;52.694;13.294;2023-07-31T07:46:26;3.80;;;1.97;;
18576;SDS011;9418;52.694;13.294;2023-07-31T07:48:52;6.23;;;2.50;;
18576;SDS011;9418;52.694;13.294;2023-07-31T07:51:19;2.53;;;2.00;;
18576;SDS011;9418;52.694;13.294;2023-07-31T07:53:46;5.23;;;2.30;;
18576;SDS011;9418;52.694;13.294;2023-07-31T07:56:12;3.77;;;2.37;;
18576;SDS011;9418;52.694;13.294;2023-07-31T07:58:39;3.87;;;2.87;;
18576;SDS011;9418;52.694;13.294;2023-07-31T08:01:06;7.23;;;2.53;;
18576;SDS011;9418;52.694;13.294;2023-07-31T08:03:33;8.23;;;2.57;;
18576;SDS011;9418;52.694;13.294;2023-07-31T08:06:00;5.43;;;2.50;;
18576;SDS011;9418;52.694;13.294;2023-07-31T08:08:27;5.53;;;2.27;;
18576;SDS011;9418;52.694;13.294;2023-07-31T08:10:54;3.07;;;1.90;;
18576;SDS011;9418;52.694;13.294;2023-07-31T08:13:20;4.37;;;2.77;;
18576;SDS011;9418;52.694;13.294;2023-07-31T08:15:47;3.73;;;2.57;;
18576;SDS011;9418;52.694;13.294;2023-07-31T08:18:15;4.70;;;2.30;;
18576;SDS011;9418;52.694;13.294;2023-07-31T08:20:42;3.57;;;2.13;;
18576;SDS011;9418;52.694;13.294;2023-07-31T08:23:09;5.30;;;2.90;;
18576;SDS011;9418;52.694;13.294;2023-07-31T08:25:35;5.83;;;2.63;;
18576;SDS011;9418;52.694;13.294;2023-07-31T08:28:02;16.17;;;2.60;;
18576;SDS011;9418;52.694;13.294;2023-07-31T08:30:29;4.73;;;2.50;;
18576;SDS011;9418;52.694;13.294;2023-07-31T08:32:55;4.07;;;2.03;;
18576;SDS011;9418;52.694;13.294;2023-07-31T08:35:23;5.17;;;2.30;;
18576;SDS011;9418;52.694;13.294;2023-07-31T08:37:50;9.93;;;1.97;;
18576;SDS011;9418;52.694;13.294;2023-07-31T08:40:16;5.50;;;2.40;;
18576;SDS011;9418;52.694;13.294;2023-07-31T08:42:43;5.87;;;2.10;;
18576;SDS011;9418;52.694;13.294;2023-07-31T08:45:12;4.00;;;2.23;;
18576;SDS011;9418;52.694;13.294;2023-07-31T08:47:40;2.30;;;1.97;;
18576;SDS011;9418;52.694;13.294;2023-07-31T08:50:08;3.13;;;1.90;;
18576;SDS011;9418;52.694;13.294;2023-07-31T08:52:36;2.40;;;2.20;;
18576;SDS011;9418;52.694;13.294;2023-07-31T08:55:03;1.80;;;1.63;;
18576;SDS011;9418;52.694;13.294;2023-07-31T08:57:31;2.47;;;2.20;;
18576;SDS011;9418;52.694;13.294;2023-07-31T08:59:58;4.13;;;2.40;;
18576;SDS011;9418;52.694;13.294;2023-07-31T09:02:25;5.57;;;3.07;;
18576;SDS011;9418;52.694;13.294;2023-07-31T09:05:00;2.00;;;1.60;;
18576;SDS011;9418;52.694;13.294;2023-07-31T09:07:27;4.80;;;2.07;;
18576;SDS011;9418;52.694;13.294;2023-07-31T09:09:56;2.17;;;1.90;;
18576;SDS011;9418;52.694;13.294;2023-07-31T09:12:23;5.00;;;2.37;;
18576;SDS011;9418;52.694;13.294;2023-07-31T09:14:51;2.30;;;1.93;;
18576;SDS011;9418;52.694;13.294;2023-07-31T09:17:28;5.37;;;2.83;;
18576;SDS011;9418;52.694;13.294;2023-07-31T09:19:55;3.23;;;1.80;;
18576;SDS011;9418;52.694;13.294;2023-07-31T09:22:30;3.53;;;2.10;;
18576;SDS011;9418;52.694;13.294;2023-07-31T09:25:00;3.20;;;2.20;;
18576;SDS011;9418;52.694;13.294;2023-07-31T09:27:46;5.47;;;1.80;;
18576;SDS011;9418;52.694;13.294;2023-07-31T09:30:14;2.53;;;2.00;;
18576;SDS011;9418;52.694;13.294;2023-07-31T09:32:40;3.17;;;2.07;;
18576;SDS011;9418;52.694;13.294;2023-07-31T09:35:13;2.90;;;2.10;;
18576;SDS011;9418;52.694;13.294;2023-07-31T09:37:44;2.07;;;1.40;;
18576;SDS011;9418;52.694;13.294;2023-07-31T09:40:16;2.47;;;1.80;;
18576;SDS011;9418;52.694;13.294;2023-07-31T09:42:51;6.83;;;1.43;;
18576;SDS011;9418;52.694;13.294;2023-07-31T09:45:18;3.23;;;1.63;;
18576;SDS011;9418;52.694;13.294;2023-07-31T09:47:46;2.13;;;1.17;;
18576;SDS011;9418;52.694;13.294;2023-07-31T09:50:13;1.73;;;1.20;;
18576;SDS011;9418;52.694;13.294;2023-07-31T09:52:40;1.63;;;1.17;;
18576;SDS011;9418;52.694;13.294;2023-07-31T09:55:07;2.37;;;1.23;;
18576;SDS011;9418;52.694;13.294;2023-07-31T09:57:35;3.17;;;1.37;;
18576;SDS011;9418;52.694;13.294;2023-07-31T10:00:05;1.30;;;1.17;;
18576;SDS011;9418;52.694;13.294;2023-07-31T10:02:34;2.83;;;1.70;;
18576;SDS011;9418;52.694;13.294;2023-07-31T10:05:02;21.23;;;1.43;;
18576;SDS011;9418;52.694;13.294;2023-07-31T10:07:30;1.73;;;1.20;;
18576;SDS011;9418;52.694;13.294;2023-07-31T10:10:00;1.60;;;1.20;;
18576;SDS011;9418;52.694;13.294;2023-07-31T10:12:27;5.43;;;1.47;;
18576;SDS011;9418;52.694;13.294;2023-07-31T10:14:56;3.27;;;1.90;;
18576;SDS011;9418;52.694;13.294;2023-07-31T10:17:22;2.30;;;1.93;;
18576;SDS011;9418;52.694;13.294;2023-07-31T10:19:50;8.73;;;1.83;;
18576;SDS011;9418;52.694;13.294;2023-07-31T10:22:18;1.87;;;1.63;;
18576;SDS011;9418;52.694;13.294;2023-07-31T10:24:46;1.73;;;1.60;;
18576;SDS011;9418;52.694;13.294;2023-07-31T10:27:16;3.37;;;1.80;;
18576;SDS011;9418;52.694;13.294;2023-07-31T10:29:43;2.20;;;1.67;;
18576;SDS011;9418;52.694;13.294;2023-07-31T10:32:14;4.37;;;2.40;;
18576;SDS011;9418;52.694;13.294;2023-07-31T10:34:42;6.20;;;1.80;;
18576;SDS011;9418;52.694;13.294;2023-07-31T10:37:19;3.47;;;2.30;;
18576;SDS011;9418;52.694;13.294;2023-07-31T10:39:56;2.53;;;2.00;;
18576;SDS011;9418;52.694;13.294;2023-07-31T10:42:31;3.47;;;2.10;;
18576;SDS011;9418;52.694;13.294;2023-07-31T10:45:00;2.13;;;1.93;;
18576;SDS011;9418;52.694;13.294;2023-07-31T10:47:29;3.60;;;2.50;;
18576;SDS011;9418;52.694;13.294;2023-07-31T10:50:12;6.13;;;3.00;;
18576;SDS011;9418;52.694;13.294;2023-07-31T10:52:40;4.50;;;2.73;;
18576;SDS011;9418;52.694;13.294;2023-07-31T10:55:15;6.97;;;3.40;;
18576;SDS011;9418;52.694;13.294;2023-07-31T10:57:48;3.70;;;2.93;;
18576;SDS011;9418;52.694;13.294;2023-07-31T11:00:18;5.07;;;2.97;;
18576;SDS011;9418;52.694;13.294;2023-07-31T11:02:56;6.53;;;3.20;;
18576;SDS011;9418;52.694;13.294;2023-07-31T11:05:52;6.10;;;3.70;;
18576;SDS011;9418;52.694;13.294;2023-07-31T11:08:26;6.60;;;3.47;;
18576;SDS011;9418;52.694;13.294;2023-07-31T11:11:04;7.30;;;3.50;;
18576;SDS011;9418;52.694;13.294;2023-07-31T11:13:32;6.47;;;3.70;;
18576;SDS011;9418;52.694;13.294;2023-07-31T11:16:05;4.43;;;3.80;;
18576;SDS011;9418;52.694;13.294;2023-07-31T11:18:33;4.60;;;3.60;;
18576;SDS011;9418;52.694;13.294;2023-07-31T11:20:59;6.87;;;3.87;;
18576;SDS011;9418;52.694;13.294;2023-07-31T11:23:26;9.97;;;4.27;;
18576;SDS011;9418;52.694;13.294;2023-07-31T11:25:52;6.53;;;3.73;;
18576;SDS011;9418;52.694;13.294;2023-07-31T11:28:25;6.33;;;3.77;;
18576;SDS011;9418;52.694;13.294;2023-07-31T11:30:52;7.53;;;3.90;;
18576;SDS011;9418;52.694;13.294;2023-07-31T11:33:18;8.67;;;4.30;;
18576;SDS011;9418;52.694;13.294;2023-07-31T11:35:47;8.40;;;4.10;;
18576;SDS011;9418;52.694;13.294;2023-07-31T11:38:20;16.73;;;4.23;;
18576;SDS011;9418;52.694;13.294;2023-07-31T11:40:48;10.63;;;4.43;;
18576;SDS011;9418;52.694;13.294;2023-07-31T11:43:15;8.13;;;4.27;;
18576;SDS011;9418;52.694;13.294;2023-07-31T11:45:44;17.03;;;4.67;;
18576;SDS011;9418;52.694;13.294;2023-07-31T11:48:17;10.23;;;4.13;;
18576;SDS011;9418;52.694;13.294;2023-07-31T11:50:47;11.23;;;4.53;;
18576;SDS011;9418;52.694;13.294;2023-07-31T11:53:15;5.20;;;3.53;;
18576;SDS011;9418;52.694;13.294;2023-07-31T11:55:45;9.07;;;4.47;;
18576;SDS011;9418;52.694;13.294;2023-07-31T11:58:12;7.83;;;4.30;;
18576;SDS011;9418;52.694;13.294;2023-07-31T12:00:41;6.50;;;3.97;;
18576;SDS011;9418;52.694;13.294;2023-07-31T12:03:08;6.90;;;4.57;;
18576;SDS011;9418;52.694;13.294;2023-07-31T12:05:36;6.27;;;4.40;;
18576;SDS011;9418;52.694;13.294;2023-07-31T12:08:10;7.93;;;4.47;;
18576;SDS011;9418;52.694;13.294;2023-07-31T12:10:37;8.30;;;4.40;;
18576;SDS011;9418;52.694;13.294;2023-07-31T12:13:06;10.23;;;4.20;;
18576;SDS011;9418;52.694;13.294;2023-07-31T12:15:36;8.13;;;3.60;;
18576;SDS011;9418;52.694;13.294;2023-07-31T12:18:05;5.27;;;4.00;;
18576;SDS011;9418;52.694;13.294;2023-07-31T12:20:33;6.77;;;4.27;;
18576;SDS011;9418;52.694;13.294;2023-07-31T12:23:00;6.30;;;3.80;;
18576;SDS011;9418;52.694;13.294;2023-07-31T12:25:34;4.73;;;3.90;;
18576;SDS011;9418;52.694;13.294;2023-07-31T12:28:04;8.60;;;3.63;;
18576;SDS011;9418;52.694;13.294;2023-07-31T12:30:36;7.77;;;3.80;;
18576;SDS011;9418;52.694;13.294;2023-07-31T12:33:03;6.67;;;4.63;;
18576;SDS011;9418;52.694;13.294;2023-07-31T12:35:34;8.93;;;3.97;;
18576;SDS011;9418;52.694;13.294;2023-07-31T12:38:02;6.43;;;4.23;;
18576;SDS011;9418;52.694;13.294;2023-07-31T12:40:28;7.53;;;3.43;;
18576;SDS011;9418;52.694;13.294;2023-07-31T12:42:56;7.53;;;4.10;;
18576;SDS011;9418;52.694;13.294;2023-07-31T12:45:23;6.70;;;3.90;;
18576;SDS011;9418;52.694;13.294;2023-07-31T12:47:49;9.60;;;4.60;;
18576;SDS011;9418;52.694;13.294;2023-07-31T12:50:16;6.30;;;4.27;;
18576;SDS011;9418;52.694;13.294;2023-07-31T12:52:42;7.87;;;4.40;;
18576;SDS011;9418;52.694;13.294;2023-07-31T12:55:09;7.17;;;4.17;;
18576;SDS011;9418;52.694;13.294;2023-07-31T12:57:36;8.17;;;4.10;;
18576;SDS011;9418;52.694;13.294;2023-07-31T13:00:05;9.23;;;4.37;;
18576;SDS011;9418;52.694;13.294;2023-07-31T13:02:32;5.33;;;4.00;;
18576;SDS011;9418;52.694;13.294;2023-07-31T13:04:59;12.07;;;4.17;;
18576;SDS011;9418;52.694;13.294;2023-07-31T13:07:26;8.47;;;4.03;;
18576;SDS011;9418;52.694;13.294;2023-07-31T13:09:52;12.87;;;4.80;;
18576;SDS011;9418;52.694;13.294;2023-07-31T13:12:19;5.77;;;3.40;;
18576;SDS011;9418;52.694;13.294;2023-07-31T13:14:45;10.83;;;4.77;;
18576;SDS011;9418;52.694;13.294;2023-07-31T13:17:13;8.67;;;4.30;;
18576;SDS011;9418;52.694;13.294;2023-07-31T13:19:40;10.60;;;4.87;;
18576;SDS011;9418;52.694;13.294;2023-07-31T13:22:07;7.60;;;4.17;;
18576;SDS011;9418;52.694;13.294;2023-07-31T13:24:34;9.60;;;4.03;;
18576;SDS011;9418;52.694;13.294;2023-07-31T13:27:00;6.77;;;4.60;;
18576;SDS011;9418;52.694;13.294;2023-07-31T13:29:27;9.23;;;3.93;;
18576;SDS011;9418;52.694;13.294;2023-07-31T13:31:54;7.50;;;4.00;;
18576;SDS011;9418;52.694;13.294;2023-07-31T13:34:22;6.93;;;3.90;;
18576;SDS011;9418;52.694;13.294;2023-07-31T13:36:49;6.30;;;3.20;;
18576;SDS011;9418;52.694;13.294;2023-07-31T13:39:16;7.33;;;4.33;;
18576;SDS011;9418;52.694;13.294;2023-07-31T13:41:42;7.80;;;4.23;;
18576;SDS011;9418;52.694;13.294;2023-07-31T13:44:09;11.90;;;3.60;;
18576;SDS011;9418;52.694;13.294;2023-07-31T13:46:35;4.40;;;2.63;;
18576;SDS011;9418;52.694;13.294;2023-07-31T13:49:02;7.37;;;3.23;;
18576;SDS011;9418;52.694;13.294;2023-07-31T13:51:29;5.53;;;3.33;;
18576;SDS011;9418;52.694;13.294;2023-07-31T13:53:56;7.63;;;2.87;;
18576;SDS011;9418;52.694;13.294;2023-07-31T13:56:23;4.30;;;2.73;;
18576;SDS011;9418;52.694;13.294;2023-07-31T13:58:49;8.47;;;3.17;;
18576;SDS011;9418;52.694;13.294;2023-07-31T14:01:16;6.23;;;3.47;;
18576;SDS011;9418;52.694;13.294;2023-07-31T14:03:43;4.00;;;2.93;;
18576;SDS011;9418;52.694;13.294;2023-07-31T14:06:09;6.43;;;3.50;;
18576;SDS011;9418;52.694;13.294;2023-07-31T14:08:37;7.73;;;3.40;;
18576;SDS011;9418;52.694;13.294;2023-07-31T14:11:04;4.80;;;3.20;;
18576;SDS011;9418;52.694;13.294;2023-07-31T14:13:30;6.13;;;3.40;;
18576;SDS011;9418;52.694;13.294;2023-07-31T14:15:57;5.20;;;3.13;;
18576;SDS011;9418;52.694;13.294;2023-07-31T14:18:23;4.73;;;3.13;;
18576;SDS011;9418;52.694;13.294;2023-07-31T14:20:50;4.23;;;3.30;;
18576;SDS011;9418;52.694;13.294;2023-07-31T14:23:17;5.87;;;3.47;;
18576;SDS011;9418;52.694;13.294;2023-07-31T14:25:46;5.97;;;3.40;;
18576;SDS011;9418;52.694;13.294;2023-07-31T14:28:12;4.37;;;2.87;;
18576;SDS011;9418;52.694;13.294;2023-07-31T14:30:39;3.90;;;2.97;;
18576;SDS011;9418;52.694;13.294;2023-07-31T14:33:05;6.37;;;3.23;;
18576;SDS011;9418;52.694;13.294;2023-07-31T14:35:32;4.60;;;3.40;;
18576;SDS011;9418;52.694;13.294;2023-07-31T14:37:59;5.60;;;3.00;;
18576;SDS011;9418;52.694;13.294;2023-07-31T14:40:26;11.70;;;3.33;;
18576;SDS011;9418;52.694;13.294;2023-07-31T14:42:54;5.47;;;3.07;;
18576;SDS011;9418;52.694;13.294;2023-07-31T14:45:20;6.80;;;3.27;;
18576;SDS011;9418;52.694;13.294;2023-07-31T14:47:47;6.17;;;3.00;;
18576;SDS011;9418;52.694;13.294;2023-07-31T14:50:13;4.70;;;3.00;;
18576;SDS011;9418;52.694;13.294;2023-07-31T14:52:40;5.77;;;3.77;;